createdAt,value
2023-02-22T06:31:20.756Z,3.50
2023-02-22T06:33:48.010Z,4.30
2023-02-22T06:36:15.235Z,3.40
2023-02-22T06:38:43.235Z,3.50
2023-02-22T06:41:10.388Z,3.50
2023-02-22T06:43:37.583Z,3.60
2023-02-22T06:46:05.152Z,3.60
2023-02-22T06:48:33.650Z,3.60
2023-02-22T06:51:00.795Z,3.70
2023-02-22T06:53:27.967Z,3.70
2023-02-22T06:55:55.445Z,3.70
2023-02-22T06:58:23.185Z,3.80
2023-02-22T07:00:50.415Z,3.90
2023-02-22T07:03:17.685Z,4.00
2023-02-22T07:05:44.944Z,4.20
2023-02-22T07:08:12.576Z,4.30
2023-02-22T07:10:41.194Z,4.60
2023-02-22T07:13:08.953Z,4.60
2023-02-22T07:15:36.085Z,4.90
2023-02-22T07:18:03.351Z,5.10
2023-02-22T07:20:31.671Z,5.40
2023-02-22T07:22:59.973Z,5.40
2023-02-22T07:25:27.225Z,5.50
2023-02-22T07:27:54.455Z,5.70
2023-02-22T07:30:26.054Z,6.00
2023-02-22T07:32:55.171Z,7.50
2023-02-22T07:35:37.183Z,6.60
2023-02-22T07:38:08.730Z,6.40
2023-02-22T07:40:37.697Z,6.40
2023-02-22T07:43:13.934Z,6.70
2023-02-22T07:45:41.636Z,6.90
2023-02-22T07:48:09.277Z,7.20
2023-02-22T07:50:36.434Z,7.40
2023-02-22T07:53:06.361Z,7.50
2023-02-22T07:55:34.308Z,7.90
2023-02-22T07:58:05.239Z,8.00
2023-02-22T08:00:39.249Z,8.10
2023-02-22T08:03:09.336Z,8.10
2023-02-22T08:05:38.913Z,7.90
2023-02-22T08:08:07.781Z,8.00
2023-02-22T08:10:36.127Z,8.30
2023-02-22T08:13:05.178Z,8.70
2023-02-22T08:15:34.905Z,9.10
2023-02-22T08:18:04.259Z,9.30
2023-02-22T08:20:31.915Z,9.50
2023-02-22T08:22:59.059Z,10.00
2023-02-22T08:25:28.911Z,10.60
2023-02-22T08:28:02.403Z,11.30
2023-02-22T08:30:31.547Z,11.90
2023-02-22T08:32:59.992Z,12.60
2023-02-22T08:35:34.871Z,14.60
2023-02-22T08:38:05.369Z,14.50
2023-02-22T08:40:35.592Z,14.90
2023-02-22T08:43:04.491Z,15.30
2023-02-22T08:45:31.916Z,16.10
2023-02-22T08:47:59.498Z,16.20
2023-02-22T08:50:29.527Z,17.20
2023-02-22T08:52:59.452Z,18.10
2023-02-22T08:55:30.101Z,19.50
2023-02-22T08:57:57.437Z,19.60
2023-02-22T09:00:25.328Z,20.00
2023-02-22T09:02:53.111Z,19.90
2023-02-22T09:05:20.537Z,19.30
2023-02-22T09:07:48.644Z,18.40
2023-02-22T09:10:24.435Z,18.30
2023-02-22T09:12:55.373Z,18.10
2023-02-22T09:15:24.215Z,17.70
2023-02-22T09:17:51.843Z,17.60
2023-02-22T09:20:21.099Z,17.10
2023-02-22T09:22:49.454Z,16.50
2023-02-22T09:25:18.248Z,16.30
2023-02-22T09:27:57.404Z,15.80
2023-02-22T09:30:33.720Z,15.90
2023-02-22T09:33:04.127Z,16.00
2023-02-22T09:35:35.956Z,16.20
2023-02-22T09:38:06.555Z,16.40
2023-02-22T09:40:41.137Z,16.30
2023-02-22T09:43:31.204Z,16.20
2023-02-22T09:46:21.030Z,16.60
2023-02-22T09:49:16.151Z,17.30
2023-02-22T09:51:52.629Z,17.30
2023-02-22T09:54:26.914Z,17.10
2023-02-22T09:56:58.326Z,17.40
2023-02-22T09:59:31.537Z,16.10
2023-02-22T10:02:16.199Z,16.30
2023-02-22T10:04:52.825Z,16.20
2023-02-22T10:07:32.106Z,16.30
2023-02-22T10:10:06.361Z,16.10
2023-02-22T10:12:48.519Z,16.50
2023-02-22T10:15:34.594Z,16.70
2023-02-22T10:18:55.136Z,16.70
2023-02-22T10:21:30.859Z,17.00
2023-02-22T10:24:23.552Z,17.30
2023-02-22T10:26:54.134Z,17.70
2023-02-22T10:29:41.535Z,17.40
2023-02-22T10:32:17.792Z,17.30
2023-02-22T10:34:51.461Z,17.10
2023-02-22T10:37:43.390Z,17.10
2023-02-22T10:40:22.863Z,16.50
2023-02-22T10:42:50.712Z,17.10
2023-02-22T10:45:21.245Z,17.20
2023-02-22T10:47:49.777Z,17.50
2023-02-22T10:50:17.347Z,17.60
2023-02-22T10:52:44.476Z,17.50
2023-02-22T10:55:16.148Z,17.30
2023-02-22T10:57:49.700Z,17.30
2023-02-22T11:00:38.736Z,18.10
2023-02-22T11:03:21.039Z,17.80
2023-02-22T11:05:49.401Z,17.90
2023-02-22T11:08:30.595Z,17.60
2023-02-22T11:11:02.247Z,17.20
2023-02-22T11:13:33.686Z,17.00
2023-02-22T11:16:17.880Z,17.30
2023-02-22T11:18:47.252Z,17.50
2023-02-22T11:21:22.694Z,17.10
2023-02-22T11:24:00.645Z,16.70
2023-02-22T11:26:28.630Z,16.40
2023-02-22T11:28:56.716Z,16.40
2023-02-22T11:31:27.243Z,16.60
2023-02-22T11:34:00.164Z,16.50
2023-02-22T11:36:41.064Z,16.60
2023-02-22T11:39:24.945Z,16.50
2023-02-22T11:41:52.674Z,16.10
2023-02-22T11:44:30.243Z,15.60
2023-02-22T11:47:06.781Z,15.60
2023-02-22T11:49:38.280Z,15.70
2023-02-22T11:52:37.403Z,15.70
2023-02-22T11:55:36.476Z,15.40
2023-02-22T11:58:37.208Z,15.40
2023-02-22T12:01:29.444Z,15.70
2023-02-22T12:04:42.043Z,16.10
2023-02-22T12:07:29.998Z,16.10
2023-02-22T12:10:13.698Z,15.80
2023-02-22T12:13:05.316Z,15.70
2023-02-22T12:15:44.623Z,15.40
2023-02-22T12:18:32.683Z,15.90
2023-02-22T12:21:08.045Z,15.50
2023-02-22T12:23:40.629Z,15.40
2023-02-22T12:26:16.625Z,15.20
2023-02-22T12:28:59.261Z,15.40
2023-02-22T12:31:34.035Z,15.40
2023-02-22T12:34:15.751Z,15.60
2023-02-22T12:36:48.475Z,15.60
2023-02-22T12:39:36.003Z,15.70
2023-02-22T12:42:14.218Z,15.90
2023-02-22T12:44:45.132Z,15.80
2023-02-22T12:47:21.405Z,15.50
2023-02-22T12:50:03.267Z,15.40
2023-02-22T12:52:44.858Z,15.10
2023-02-22T12:55:18.035Z,14.90
2023-02-22T12:58:14.208Z,14.90
2023-02-22T13:00:50.941Z,14.50
2023-02-22T13:03:38.480Z,14.60
2023-02-22T13:06:08.579Z,14.60
2023-02-22T13:08:46.123Z,14.70
2023-02-22T13:11:22.514Z,14.50
2023-02-22T13:14:07.811Z,14.60
2023-02-22T13:16:53.259Z,14.70
2023-02-22T13:19:41.824Z,14.60
2023-02-22T13:22:29.221Z,14.40
2023-02-22T13:25:09.235Z,14.40
2023-02-22T13:27:49.061Z,14.40
2023-02-22T13:30:22.296Z,14.40
2023-02-22T13:33:03.056Z,14.60
2023-02-22T13:35:35.491Z,14.70
2023-02-22T13:38:23.690Z,14.40
2023-02-22T13:41:19.898Z,14.40
2023-02-22T13:44:21.064Z,14.30
2023-02-22T13:47:20.620Z,14.60
2023-02-22T13:50:02.485Z,14.50
2023-02-22T13:52:31.875Z,14.50
2023-02-22T13:55:03.451Z,14.50
2023-02-22T13:57:41.726Z,14.30
2023-02-22T14:00:15.038Z,14.30
2023-02-22T14:03:01.467Z,14.30
2023-02-22T14:05:42.359Z,14.10
2023-02-22T14:08:31.630Z,14.30
2023-02-22T14:10:59.252Z,14.30
2023-02-22T14:14:00.897Z,14.60
2023-02-22T14:16:30.816Z,14.80
2023-02-22T14:19:14.490Z,14.90
2023-02-22T14:22:03.409Z,14.80
2023-02-22T14:24:45.704Z,14.70
2023-02-22T14:27:14.506Z,14.60
2023-02-22T14:29:54.049Z,14.40
2023-02-22T14:32:31.838Z,14.50
2023-02-22T14:35:27.569Z,14.40
2023-02-22T14:38:01.275Z,14.20
2023-02-22T14:40:32.530Z,14.20
2023-02-22T14:43:12.549Z,13.90
2023-02-22T14:46:13.328Z,13.90
2023-02-22T14:48:42.943Z,13.80
2023-02-22T14:51:44.204Z,13.70
2023-02-22T14:54:28.661Z,13.60
2023-02-22T14:57:14.822Z,13.60
2023-02-22T14:59:57.757Z,13.70
2023-02-22T15:02:26.160Z,13.70
2023-02-22T15:04:55.805Z,13.50
2023-02-22T15:07:29.795Z,13.60
2023-02-22T15:10:20.560Z,13.30
2023-02-22T15:13:09.215Z,13.20
2023-02-22T15:15:48.211Z,13.10
2023-02-22T15:18:39.809Z,13.00
2023-02-22T15:21:10.976Z,12.90
2023-02-22T15:23:42.800Z,12.90
2023-02-22T15:26:30.985Z,12.80
2023-02-22T15:28:59.761Z,12.90
2023-02-22T15:31:32.026Z,12.90
2023-02-22T15:34:12.904Z,12.70
2023-02-22T15:36:41.589Z,12.70
2023-02-22T15:39:29.561Z,12.60
2023-02-22T15:42:19.358Z,12.50
2023-02-22T15:44:55.742Z,12.40
2023-02-22T15:47:32.343Z,12.30
2023-02-22T15:50:23.343Z,12.30
2023-02-22T15:52:58.050Z,12.30
2023-02-22T15:55:29.642Z,12.20
2023-02-22T15:58:01.717Z,12.20
2023-02-22T16:00:36.391Z,12.10
2023-02-22T16:03:14.313Z,12.10
2023-02-22T16:05:44.062Z,12.00
2023-02-22T16:08:45.777Z,12.00
2023-02-22T16:11:32.649Z,11.90
2023-02-22T16:14:04.860Z,11.80
2023-02-22T16:16:41.588Z,11.70
2023-02-22T16:19:32.808Z,11.70
2023-02-22T16:22:06.384Z,11.60
2023-02-22T16:24:35.583Z,11.50
2023-02-22T16:27:18.825Z,11.50
2023-02-22T16:30:25.339Z,11.40
2023-02-22T16:32:55.078Z,11.30
2023-02-22T16:35:28.567Z,11.20
2023-02-22T16:38:07.711Z,11.10
2023-02-22T16:40:47.089Z,11.10
2023-02-22T16:43:17.160Z,11.00
2023-02-22T16:45:44.595Z,10.90
2023-02-22T16:48:26.428Z,10.80
2023-02-22T16:50:56.637Z,10.70
2023-02-22T16:53:26.709Z,10.60
2023-02-22T16:56:00.757Z,10.50
2023-02-22T16:58:29.349Z,10.50
